createdAt,value
2019-06-27T00:02:33.236Z,24.44
2019-06-27T00:07:36.595Z,24.00
2019-06-27T00:12:39.973Z,23.78
2019-06-27T00:17:43.403Z,24.11
2019-06-27T00:22:47.035Z,24.00
2019-06-27T00:27:50.382Z,23.54
2019-06-27T00:32:53.810Z,23.39
2019-06-27T00:37:57.222Z,23.39
2019-06-27T00:43:00.578Z,23.35
2019-06-27T00:48:03.956Z,23.41
2019-06-27T00:53:07.355Z,22.89
2019-06-27T00:58:10.940Z,23.26
2019-06-27T01:03:14.475Z,23.38
2019-06-27T01:08:17.816Z,23.34
2019-06-27T01:13:21.255Z,23.00
2019-06-27T01:18:24.770Z,23.06
2019-06-27T01:23:28.141Z,23.13
2019-06-27T01:28:31.488Z,22.77
2019-06-27T01:33:34.881Z,22.65
2019-06-27T01:38:38.491Z,22.74
2019-06-27T01:43:41.826Z,22.75
2019-06-27T01:48:45.283Z,22.65
2019-06-27T01:53:48.801Z,22.26
2019-06-27T01:58:52.135Z,22.54
2019-06-27T02:03:55.485Z,22.63
2019-06-27T02:08:58.903Z,22.29
2019-06-27T02:14:02.367Z,22.25
2019-06-27T02:19:05.774Z,22.25
2019-06-27T02:24:09.289Z,22.30
2019-06-27T02:29:12.657Z,22.53
2019-06-27T02:34:16.129Z,22.32
2019-06-27T02:39:19.555Z,22.23
2019-06-27T02:44:22.908Z,22.32
2019-06-27T02:49:26.271Z,22.10
2019-06-27T02:54:29.725Z,22.04
2019-06-27T02:59:33.093Z,22.33
2019-06-27T03:04:36.485Z,22.11
2019-06-27T03:09:39.992Z,22.27
2019-06-27T03:14:43.377Z,22.32
2019-06-27T03:19:46.758Z,22.40
2019-06-27T03:24:50.117Z,22.43
2019-06-27T03:29:53.599Z,22.37
2019-06-27T03:34:57.022Z,22.18
2019-06-27T03:40:00.355Z,22.25
2019-06-27T03:45:05.935Z,22.11
2019-06-27T03:50:09.488Z,22.24
2019-06-27T03:55:12.945Z,22.41
2019-06-27T04:00:28.425Z,22.63
2019-06-27T04:05:31.822Z,22.82
2019-06-27T04:10:35.220Z,23.02
2019-06-27T04:15:38.602Z,23.13
2019-06-27T04:20:42.134Z,23.19
2019-06-27T04:25:45.458Z,23.23
2019-06-27T04:30:48.856Z,23.28
2019-06-27T04:35:52.181Z,23.33
2019-06-27T04:40:55.620Z,23.37
2019-06-27T04:45:58.993Z,23.42
2019-06-27T04:51:02.365Z,23.42
2019-06-27T04:56:05.711Z,23.43
2019-06-27T05:01:09.145Z,23.51
2019-06-27T05:06:12.479Z,23.50
2019-06-27T05:11:15.994Z,23.56
2019-06-27T05:16:19.356Z,23.58
2019-06-27T05:21:22.717Z,23.67
2019-06-27T05:26:26.150Z,23.70
2019-06-27T05:31:29.644Z,23.78
2019-06-27T05:36:33.088Z,23.90
2019-06-27T05:41:36.397Z,23.87
2019-06-27T05:46:39.761Z,23.95
2019-06-27T05:51:43.219Z,24.11
2019-06-27T05:56:46.618Z,24.13
2019-06-27T06:01:49.999Z,24.17
2019-06-27T06:06:53.467Z,24.23
2019-06-27T06:11:56.906Z,24.43
2019-06-27T06:17:00.326Z,24.45
2019-06-27T06:22:03.693Z,24.51
2019-06-27T06:27:07.166Z,24.72
2019-06-27T06:32:10.725Z,24.80
2019-06-27T06:37:15.236Z,24.85
2019-06-27T06:42:18.607Z,25.05
2019-06-27T06:47:21.963Z,25.25
2019-06-27T06:52:25.432Z,25.26
2019-06-27T06:57:28.793Z,25.45
2019-06-27T07:02:32.244Z,25.75
2019-06-27T07:07:35.611Z,25.79
2019-06-27T07:12:38.979Z,26.06
2019-06-27T07:17:42.343Z,26.28
2019-06-27T07:22:45.689Z,26.25
2019-06-27T07:27:49.040Z,26.29
2019-06-27T07:32:52.445Z,26.42
2019-06-27T07:37:55.900Z,26.35
2019-06-27T07:42:59.253Z,26.48
2019-06-27T07:48:02.677Z,26.16
2019-06-27T07:53:06.065Z,26.53
2019-06-27T07:58:09.457Z,26.49
2019-06-27T08:03:12.800Z,26.59
2019-06-27T08:08:16.236Z,26.93
2019-06-27T08:13:19.650Z,26.97
2019-06-27T08:18:23.321Z,26.91
2019-06-27T08:23:40.558Z,27.26
2019-06-27T08:28:31.958Z,27.23
2019-06-27T08:33:35.331Z,27.49
2019-06-27T08:38:38.672Z,27.68
2019-06-27T08:43:42.126Z,28.13
2019-06-27T08:48:45.544Z,28.12
2019-06-27T08:53:49.183Z,28.28
2019-06-27T08:58:52.584Z,28.67
2019-06-27T09:03:56.081Z,28.51
2019-06-27T09:08:59.490Z,28.66
2019-06-27T09:14:02.831Z,28.78
2019-06-27T09:19:06.235Z,28.71
2019-06-27T09:24:09.789Z,28.88
2019-06-27T09:29:13.269Z,29.01
2019-06-27T09:34:16.705Z,29.00
2019-06-27T09:39:20.180Z,28.74
2019-06-27T09:44:23.871Z,28.61
2019-06-27T09:49:27.246Z,29.06
2019-06-27T09:54:30.760Z,28.94
2019-06-27T09:59:34.217Z,29.34
2019-06-27T10:04:37.767Z,29.15
2019-06-27T10:09:41.124Z,29.55
2019-06-27T10:14:44.486Z,29.43
2019-06-27T10:19:48.008Z,29.51
2019-06-27T10:24:51.407Z,29.61
2019-06-27T10:29:54.783Z,29.96
2019-06-27T10:34:58.225Z,29.98
2019-06-27T10:40:01.695Z,29.72
2019-06-27T10:45:08.434Z,29.75
2019-06-27T10:50:12.353Z,29.77
2019-06-27T10:55:15.795Z,30.01
2019-06-27T11:00:19.395Z,29.91
2019-06-27T11:05:22.820Z,29.60
2019-06-27T11:10:26.198Z,30.01
2019-06-27T11:15:29.568Z,30.06
2019-06-27T11:20:32.982Z,30.29
2019-06-27T11:25:36.314Z,30.88
2019-06-27T11:30:39.806Z,30.73
2019-06-27T11:35:43.141Z,30.61
2019-06-27T11:40:46.583Z,30.59
2019-06-27T11:45:49.999Z,30.73
2019-06-27T11:50:54.304Z,30.74
2019-06-27T11:55:57.692Z,30.73
2019-06-27T12:01:01.078Z,30.96
2019-06-27T12:06:04.463Z,30.98
2019-06-27T12:11:07.804Z,30.85
2019-06-27T12:16:11.157Z,30.99
2019-06-27T12:21:14.542Z,31.19
2019-06-27T12:26:17.897Z,31.24
2019-06-27T12:31:21.533Z,31.20
2019-06-27T12:36:24.933Z,31.45
2019-06-27T12:41:28.275Z,31.33
2019-06-27T12:46:31.625Z,31.44
2019-06-27T12:51:35.059Z,31.69
2019-06-27T12:56:38.377Z,31.33
2019-06-27T13:01:41.733Z,31.55
2019-06-27T13:06:45.233Z,31.86
2019-06-27T13:11:49.439Z,31.54
2019-06-27T13:16:52.765Z,31.69
2019-06-27T13:21:56.129Z,32.18
2019-06-27T13:26:59.486Z,32.34
2019-06-27T13:32:02.920Z,32.01
2019-06-27T13:37:06.265Z,32.43
2019-06-27T13:42:09.671Z,32.50
2019-06-27T13:47:13.027Z,32.38
2019-06-27T13:52:16.385Z,32.60
2019-06-27T13:57:19.756Z,32.63
2019-06-27T14:02:23.155Z,32.37
2019-06-27T14:07:26.504Z,32.31
2019-06-27T14:12:30.435Z,33.18
2019-06-27T14:17:33.822Z,33.18
2019-06-27T14:22:37.153Z,33.06
2019-06-27T14:27:40.473Z,33.31
2019-06-27T14:32:43.898Z,33.16
2019-06-27T14:37:47.367Z,33.09
2019-06-27T14:42:50.800Z,32.99
2019-06-27T14:47:54.133Z,33.29
2019-06-27T14:52:57.483Z,32.93
2019-06-27T14:58:00.856Z,33.19
2019-06-27T15:03:04.278Z,33.78
2019-06-27T15:08:07.700Z,33.86
2019-06-27T15:13:11.064Z,33.59
2019-06-27T15:18:16.774Z,33.48
2019-06-27T15:23:19.689Z,33.75
2019-06-27T15:28:23.526Z,33.99
2019-06-27T15:33:26.864Z,34.05
2019-06-27T15:38:30.352Z,33.79
2019-06-27T15:43:33.681Z,33.79
2019-06-27T15:48:37.322Z,34.00
2019-06-27T15:53:40.746Z,33.68
2019-06-27T15:58:44.119Z,33.17
2019-06-27T16:03:47.440Z,33.47
2019-06-27T16:08:50.836Z,33.52
2019-06-27T16:13:54.251Z,33.59
2019-06-27T16:18:57.581Z,33.68
2019-06-27T16:24:01.021Z,33.27
2019-06-27T16:29:04.356Z,32.82
2019-06-27T16:34:07.719Z,32.78
2019-06-27T16:39:11.114Z,32.47
2019-06-27T16:44:14.471Z,32.92
2019-06-27T16:49:17.809Z,32.71
2019-06-27T16:54:21.187Z,32.71
2019-06-27T16:59:24.481Z,32.45
2019-06-27T17:04:28.024Z,32.38
2019-06-27T17:09:31.371Z,32.24
2019-06-27T17:14:34.695Z,31.90
2019-06-27T17:19:38.202Z,31.76
2019-06-27T17:24:41.547Z,31.52
2019-06-27T17:29:44.873Z,31.63
2019-06-27T17:34:48.302Z,31.54
2019-06-27T17:39:51.664Z,31.65
2019-06-27T17:44:55.088Z,31.41
2019-06-27T17:49:58.528Z,30.96
2019-06-27T17:55:01.972Z,30.90
2019-06-27T18:00:06.557Z,30.84
2019-06-27T18:05:10.256Z,30.15
2019-06-27T18:10:14.065Z,29.90
2019-06-27T18:15:17.662Z,29.56
2019-06-27T18:20:20.990Z,29.14
2019-06-27T18:25:24.338Z,28.78
2019-06-27T18:30:27.676Z,28.60
2019-06-27T18:35:31.058Z,28.34
2019-06-27T18:40:34.482Z,28.20
2019-06-27T18:45:37.821Z,28.05
2019-06-27T18:50:41.274Z,27.83
2019-06-27T18:55:44.671Z,27.52
2019-06-27T19:00:49.126Z,27.33
2019-06-27T19:05:52.575Z,27.14
2019-06-27T19:10:55.908Z,26.99
2019-06-27T19:15:59.407Z,26.80
2019-06-27T19:21:04.382Z,26.67
2019-06-27T19:26:07.872Z,26.34
2019-06-27T19:31:11.256Z,25.94
2019-06-27T19:36:14.588Z,25.72
2019-06-27T19:41:17.963Z,25.51
2019-06-27T19:46:21.331Z,25.19
2019-06-27T19:51:24.743Z,25.00
2019-06-27T19:56:28.151Z,24.86
2019-06-27T20:01:31.556Z,24.68
2019-06-27T20:06:35.004Z,24.57
2019-06-27T20:11:38.275Z,24.51
2019-06-27T20:16:41.622Z,24.28
2019-06-27T20:21:44.966Z,24.16
2019-06-27T20:26:48.312Z,23.95
2019-06-27T20:31:51.664Z,23.48
2019-06-27T20:36:55.084Z,23.19
2019-06-27T20:41:58.576Z,23.02
2019-06-27T20:47:02.006Z,22.83
2019-06-27T20:57:07.746Z,22.51
2019-06-27T21:02:11.085Z,22.48
2019-06-27T21:07:14.482Z,22.38
2019-06-27T21:12:17.872Z,22.17
2019-06-27T21:17:21.197Z,22.15
2019-06-27T21:22:24.540Z,21.99
2019-06-27T21:27:27.905Z,21.66
2019-06-27T21:32:32.140Z,21.75
2019-06-27T21:37:35.871Z,21.57
2019-06-27T21:42:39.301Z,21.42
2019-06-27T21:47:42.683Z,21.41
2019-06-27T21:52:46.053Z,21.24
2019-06-27T21:57:49.411Z,21.09
2019-06-27T22:02:52.746Z,21.02
2019-06-27T22:07:56.071Z,21.04
2019-06-27T22:12:59.472Z,20.88
2019-06-27T22:18:02.931Z,20.80
2019-06-27T22:23:06.252Z,20.70
2019-06-27T22:28:09.585Z,20.60
2019-06-27T22:33:12.985Z,20.53
2019-06-27T22:38:34.376Z,20.51
2019-06-27T22:43:55.640Z,20.44
2019-06-27T22:48:59.569Z,20.47
2019-06-27T22:54:04.556Z,20.41
2019-06-27T22:59:07.892Z,20.33
2019-06-27T23:04:11.326Z,20.27
2019-06-27T23:09:14.704Z,20.09
2019-06-27T23:14:18.113Z,19.95
2019-06-27T23:19:21.447Z,19.55
2019-06-27T23:24:24.823Z,19.48
2019-06-27T23:29:28.349Z,19.53
2019-06-27T23:34:31.711Z,19.48
2019-06-27T23:39:35.199Z,19.20
2019-06-27T23:44:38.975Z,19.37
2019-06-27T23:49:42.428Z,19.38
2019-06-27T23:54:45.964Z,19.22
2019-06-27T23:59:49.372Z,19.07
